sensor_id;sensor_type;location;lat;lon;timestamp;P1;durP1;ratioP1;P2;durP2;ratioP2
81039;SDS011;70525;53.224;8.782;2024-01-15T00:26:52;1.13;;;0.50;;
81039;SDS011;70525;53.224;8.782;2024-01-15T00:56:54;1.97;;;1.00;;
81039;SDS011;70525;53.224;8.782;2024-01-15T01:26:56;3.97;;;0.70;;
81039;SDS011;70525;53.224;8.782;2024-01-15T01:56:58;3.83;;;1.13;;
81039;SDS011;70525;53.224;8.782;2024-01-15T02:26:59;2.87;;;0.70;;
81039;SDS011;70525;53.224;8.782;2024-01-15T02:57:01;4.33;;;0.80;;
81039;SDS011;70525;53.224;8.782;2024-01-15T03:27:02;5.30;;;0.57;;
81039;SDS011;70525;53.224;8.782;2024-01-15T03:57:04;1.60;;;0.80;;
81039;SDS011;70525;53.224;8.782;2024-01-15T04:27:06;2.53;;;1.00;;
81039;SDS011;70525;53.224;8.782;2024-01-15T04:57:08;3.27;;;0.77;;
81039;SDS011;70525;53.224;8.782;2024-01-15T05:27:10;2.67;;;0.80;;
81039;SDS011;70525;53.224;8.782;2024-01-15T05:57:11;2.57;;;0.63;;
81039;SDS011;70525;53.224;8.782;2024-01-15T06:27:13;3.50;;;0.97;;
81039;SDS011;70525;53.224;8.782;2024-01-15T06:57:14;4.30;;;0.90;;
81039;SDS011;70525;53.224;8.782;2024-01-15T07:27:16;1.77;;;0.43;;
81039;SDS011;70525;53.224;8.782;2024-01-15T07:57:17;3.40;;;0.97;;
81039;SDS011;70525;53.224;8.782;2024-01-15T08:27:19;1.13;;;0.30;;
81039;SDS011;70525;53.224;8.782;2024-01-15T08:57:21;5.70;;;1.43;;
81039;SDS011;70525;53.224;8.782;2024-01-15T09:27:23;3.60;;;0.83;;
81039;SDS011;70525;53.224;8.782;2024-01-15T09:57:27;5.30;;;0.87;;
81039;SDS011;70525;53.224;8.782;2024-01-15T10:27:28;4.10;;;1.23;;
81039;SDS011;70525;53.224;8.782;2024-01-15T10:57:30;4.53;;;1.30;;
81039;SDS011;70525;53.224;8.782;2024-01-15T11:27:45;2.70;;;0.80;;
81039;SDS011;70525;53.224;8.782;2024-01-15T11:57:55;2.77;;;1.03;;
81039;SDS011;70525;53.224;8.782;2024-01-15T12:27:57;1.13;;;0.70;;
81039;SDS011;70525;53.224;8.782;2024-01-15T12:57:58;2.17;;;1.10;;
81039;SDS011;70525;53.224;8.782;2024-01-15T13:28:00;4.50;;;1.17;;
81039;SDS011;70525;53.224;8.782;2024-01-15T13:58:04;2.87;;;1.50;;
81039;SDS011;70525;53.224;8.782;2024-01-15T14:28:07;2.00;;;1.60;;
81039;SDS011;70525;53.224;8.782;2024-01-15T14:58:08;3.23;;;1.77;;
81039;SDS011;70525;53.224;8.782;2024-01-15T15:28:10;3.90;;;1.40;;
81039;SDS011;70525;53.224;8.782;2024-01-15T15:58:12;2.90;;;1.70;;
81039;SDS011;70525;53.224;8.782;2024-01-15T16:28:14;3.80;;;1.70;;
81039;SDS011;70525;53.224;8.782;2024-01-15T16:58:15;2.90;;;2.23;;
81039;SDS011;70525;53.224;8.782;2024-01-15T17:28:17;3.03;;;1.73;;
81039;SDS011;70525;53.224;8.782;2024-01-15T17:58:19;1.97;;;1.33;;
81039;SDS011;70525;53.224;8.782;2024-01-15T18:28:20;6.83;;;2.87;;
81039;SDS011;70525;53.224;8.782;2024-01-15T18:58:22;3.87;;;2.60;;
81039;SDS011;70525;53.224;8.782;2024-01-15T19:28:24;3.67;;;2.30;;
81039;SDS011;70525;53.224;8.782;2024-01-15T19:58:25;4.33;;;1.40;;
81039;SDS011;70525;53.224;8.782;2024-01-15T20:28:27;4.97;;;1.87;;
81039;SDS011;70525;53.224;8.782;2024-01-15T20:58:28;7.00;;;1.07;;
81039;SDS011;70525;53.224;8.782;2024-01-15T21:28:30;0.77;;;0.60;;
81039;SDS011;70525;53.224;8.782;2024-01-15T21:58:32;1.23;;;0.87;;
81039;SDS011;70525;53.224;8.782;2024-01-15T22:28:33;2.63;;;0.93;;
81039;SDS011;70525;53.224;8.782;2024-01-15T22:58:35;1.70;;;0.70;;
81039;SDS011;70525;53.224;8.782;2024-01-15T23:28:36;1.43;;;0.80;;
81039;SDS011;70525;53.224;8.782;2024-01-15T23:58:38;3.83;;;0.70;;
